sensor_id;sensor_type;location;lat;lon;timestamp;P1;durP1;ratioP1;P2;durP2;ratioP2
65162;SDS011;51751;55.714;37.436;2023-03-01T00:00:40;4.85;;;0.75;;
65162;SDS011;51751;55.714;37.436;2023-03-01T00:03:07;5.30;;;0.50;;
65162;SDS011;51751;55.714;37.436;2023-03-01T00:05:35;0.95;;;0.60;;
65162;SDS011;51751;55.714;37.436;2023-03-01T00:08:20;1.63;;;0.55;;
65162;SDS011;51751;55.714;37.436;2023-03-01T00:10:46;1.55;;;0.60;;
65162;SDS011;51751;55.714;37.436;2023-03-01T00:13:12;1.05;;;0.52;;
65162;SDS011;51751;55.714;37.436;2023-03-01T00:15:41;1.08;;;0.30;;
65162;SDS011;51751;55.714;37.436;2023-03-01T00:18:07;4.22;;;0.73;;
65162;SDS011;51751;55.714;37.436;2023-03-01T00:20:34;0.80;;;0.50;;
65162;SDS011;51751;55.714;37.436;2023-03-01T00:23:02;0.30;;;0.30;;
65162;SDS011;51751;55.714;37.436;2023-03-01T00:25:28;3.13;;;0.52;;
65162;SDS011;51751;55.714;37.436;2023-03-01T00:27:57;1.67;;;0.40;;
65162;SDS011;51751;55.714;37.436;2023-03-01T00:30:23;0.55;;;0.43;;
65162;SDS011;51751;55.714;37.436;2023-03-01T00:32:49;1.63;;;0.40;;
65162;SDS011;51751;55.714;37.436;2023-03-01T00:35:21;1.02;;;0.35;;
65162;SDS011;51751;55.714;37.436;2023-03-01T00:37:50;2.17;;;0.73;;
65162;SDS011;51751;55.714;37.436;2023-03-01T00:40:41;0.85;;;0.32;;
65162;SDS011;51751;55.714;37.436;2023-03-01T00:43:09;2.92;;;0.73;;
65162;SDS011;51751;55.714;37.436;2023-03-01T00:45:35;1.17;;;0.30;;
65162;SDS011;51751;55.714;37.436;2023-03-01T00:48:01;1.08;;;0.43;;
65162;SDS011;51751;55.714;37.436;2023-03-01T00:50:27;1.08;;;0.50;;
65162;SDS011;51751;55.714;37.436;2023-03-01T00:52:54;3.70;;;0.50;;
65162;SDS011;51751;55.714;37.436;2023-03-01T00:55:21;2.45;;;0.40;;
65162;SDS011;51751;55.714;37.436;2023-03-01T00:57:48;1.20;;;0.50;;
65162;SDS011;51751;55.714;37.436;2023-03-01T01:03:02;0.55;;;0.40;;
65162;SDS011;51751;55.714;37.436;2023-03-01T01:05:29;1.20;;;0.55;;
65162;SDS011;51751;55.714;37.436;2023-03-01T01:07:56;3.10;;;0.50;;
65162;SDS011;51751;55.714;37.436;2023-03-01T01:10:21;2.03;;;0.50;;
65162;SDS011;51751;55.714;37.436;2023-03-01T01:12:47;0.80;;;0.52;;
65162;SDS011;51751;55.714;37.436;2023-03-01T01:15:13;0.90;;;0.30;;
65162;SDS011;51751;55.714;37.436;2023-03-01T01:17:41;4.00;;;0.65;;
65162;SDS011;51751;55.714;37.436;2023-03-01T01:20:08;1.48;;;0.40;;
65162;SDS011;51751;55.714;37.436;2023-03-01T01:22:35;2.00;;;0.40;;
65162;SDS011;51751;55.714;37.436;2023-03-01T01:25:03;1.17;;;0.40;;
65162;SDS011;51751;55.714;37.436;2023-03-01T01:27:29;2.15;;;0.50;;
65162;SDS011;51751;55.714;37.436;2023-03-01T01:29:56;2.25;;;0.60;;
65162;SDS011;51751;55.714;37.436;2023-03-01T01:32:25;2.83;;;1.58;;
65162;SDS011;51751;55.714;37.436;2023-03-01T01:34:51;0.90;;;0.50;;
65162;SDS011;51751;55.714;37.436;2023-03-01T01:37:21;2.22;;;0.57;;
65162;SDS011;51751;55.714;37.436;2023-03-01T01:39:47;1.58;;;0.50;;
65162;SDS011;51751;55.714;37.436;2023-03-01T01:42:16;2.45;;;0.45;;
65162;SDS011;51751;55.714;37.436;2023-03-01T01:45:15;1.50;;;0.60;;
65162;SDS011;51751;55.714;37.436;2023-03-01T01:47:50;1.67;;;0.63;;
65162;SDS011;51751;55.714;37.436;2023-03-01T01:50:20;1.10;;;0.50;;
65162;SDS011;51751;55.714;37.436;2023-03-01T01:52:46;2.55;;;0.80;;
65162;SDS011;51751;55.714;37.436;2023-03-01T01:55:15;2.28;;;0.68;;
65162;SDS011;51751;55.714;37.436;2023-03-01T01:57:49;2.42;;;0.60;;
65162;SDS011;51751;55.714;37.436;2023-03-01T02:00:35;1.90;;;0.70;;
65162;SDS011;51751;55.714;37.436;2023-03-01T02:03:08;0.50;;;0.47;;
65162;SDS011;51751;55.714;37.436;2023-03-01T02:08:08;0.40;;;0.30;;
65162;SDS011;51751;55.714;37.436;2023-03-01T02:10:37;2.75;;;0.70;;
65162;SDS011;51751;55.714;37.436;2023-03-01T02:13:03;2.00;;;0.73;;
65162;SDS011;51751;55.714;37.436;2023-03-01T02:18:16;0.90;;;0.40;;
65162;SDS011;51751;55.714;37.436;2023-03-01T02:23:31;2.58;;;0.47;;
65162;SDS011;51751;55.714;37.436;2023-03-01T02:26:11;1.52;;;0.47;;
65162;SDS011;51751;55.714;37.436;2023-03-01T02:29:02;1.80;;;0.40;;
65162;SDS011;51751;55.714;37.436;2023-03-01T02:31:28;3.55;;;0.45;;
65162;SDS011;51751;55.714;37.436;2023-03-01T02:34:15;2.88;;;0.30;;
65162;SDS011;51751;55.714;37.436;2023-03-01T02:36:43;3.53;;;0.73;;
65162;SDS011;51751;55.714;37.436;2023-03-01T02:39:12;2.28;;;0.65;;
65162;SDS011;51751;55.714;37.436;2023-03-01T02:41:41;0.30;;;0.20;;
65162;SDS011;51751;55.714;37.436;2023-03-01T02:44:09;1.20;;;0.50;;
65162;SDS011;51751;55.714;37.436;2023-03-01T02:46:41;1.13;;;0.52;;
65162;SDS011;51751;55.714;37.436;2023-03-01T02:57:26;0.95;;;0.22;;
65162;SDS011;51751;55.714;37.436;2023-03-01T02:59:55;2.60;;;0.40;;
65162;SDS011;51751;55.714;37.436;2023-03-01T03:02:26;3.25;;;0.70;;
65162;SDS011;51751;55.714;37.436;2023-03-01T03:05:06;2.88;;;0.60;;
65162;SDS011;51751;55.714;37.436;2023-03-01T03:07:40;2.58;;;0.60;;
65162;SDS011;51751;55.714;37.436;2023-03-01T03:10:12;2.10;;;0.70;;
65162;SDS011;51751;55.714;37.436;2023-03-01T03:12:55;1.45;;;0.63;;
65162;SDS011;51751;55.714;37.436;2023-03-01T03:15:29;2.25;;;1.00;;
65162;SDS011;51751;55.714;37.436;2023-03-01T03:17:57;1.48;;;0.70;;
65162;SDS011;51751;55.714;37.436;2023-03-01T03:20:24;2.42;;;0.60;;
65162;SDS011;51751;55.714;37.436;2023-03-01T03:22:52;0.93;;;0.65;;
65162;SDS011;51751;55.714;37.436;2023-03-01T03:25:24;2.20;;;0.40;;
65162;SDS011;51751;55.714;37.436;2023-03-01T03:27:51;2.47;;;0.75;;
65162;SDS011;51751;55.714;37.436;2023-03-01T03:30:23;4.32;;;0.80;;
65162;SDS011;51751;55.714;37.436;2023-03-01T03:32:55;3.08;;;0.80;;
65162;SDS011;51751;55.714;37.436;2023-03-01T03:35:25;1.65;;;0.88;;
65162;SDS011;51751;55.714;37.436;2023-03-01T03:37:55;1.35;;;0.60;;
65162;SDS011;51751;55.714;37.436;2023-03-01T03:40:47;1.00;;;0.50;;
65162;SDS011;51751;55.714;37.436;2023-03-01T03:43:22;1.65;;;0.73;;
65162;SDS011;51751;55.714;37.436;2023-03-01T03:45:50;1.85;;;0.50;;
65162;SDS011;51751;55.714;37.436;2023-03-01T03:48:17;3.03;;;0.90;;
65162;SDS011;51751;55.714;37.436;2023-03-01T03:50:51;1.00;;;0.55;;
65162;SDS011;51751;55.714;37.436;2023-03-01T03:53:21;2.92;;;0.60;;
65162;SDS011;51751;55.714;37.436;2023-03-01T03:55:49;0.80;;;0.60;;
65162;SDS011;51751;55.714;37.436;2023-03-01T03:58:17;4.32;;;0.95;;
65162;SDS011;51751;55.714;37.436;2023-03-01T04:00:45;3.28;;;1.15;;
65162;SDS011;51751;55.714;37.436;2023-03-01T04:03:13;4.30;;;0.82;;
65162;SDS011;51751;55.714;37.436;2023-03-01T04:05:41;3.42;;;1.00;;
65162;SDS011;51751;55.714;37.436;2023-03-01T04:08:28;0.70;;;0.70;;
65162;SDS011;51751;55.714;37.436;2023-03-01T04:10:59;0.90;;;0.50;;
65162;SDS011;51751;55.714;37.436;2023-03-01T04:13:46;3.78;;;0.63;;
65162;SDS011;51751;55.714;37.436;2023-03-01T04:16:11;1.00;;;0.90;;
65162;SDS011;51751;55.714;37.436;2023-03-01T04:18:37;0.88;;;0.70;;
65162;SDS011;51751;55.714;37.436;2023-03-01T04:21:03;2.17;;;0.60;;
65162;SDS011;51751;55.714;37.436;2023-03-01T04:23:30;2.15;;;0.85;;
65162;SDS011;51751;55.714;37.436;2023-03-01T04:25:56;3.67;;;0.88;;
65162;SDS011;51751;55.714;37.436;2023-03-01T04:28:24;1.00;;;0.60;;
65162;SDS011;51751;55.714;37.436;2023-03-01T04:30:53;0.68;;;0.60;;
65162;SDS011;51751;55.714;37.436;2023-03-01T04:33:19;3.53;;;0.82;;
65162;SDS011;51751;55.714;37.436;2023-03-01T04:35:46;1.13;;;0.52;;
65162;SDS011;51751;55.714;37.436;2023-03-01T04:38:14;3.72;;;1.48;;
65162;SDS011;51751;55.714;37.436;2023-03-01T04:40:43;1.23;;;0.90;;
65162;SDS011;51751;55.714;37.436;2023-03-01T04:43:10;1.90;;;1.20;;
65162;SDS011;51751;55.714;37.436;2023-03-01T04:45:39;2.28;;;1.08;;
65162;SDS011;51751;55.714;37.436;2023-03-01T04:48:05;3.35;;;1.15;;
65162;SDS011;51751;55.714;37.436;2023-03-01T04:50:31;4.20;;;1.58;;
65162;SDS011;51751;55.714;37.436;2023-03-01T04:52:57;2.03;;;0.82;;
65162;SDS011;51751;55.714;37.436;2023-03-01T04:55:26;5.10;;;1.13;;
65162;SDS011;51751;55.714;37.436;2023-03-01T04:57:53;6.97;;;1.30;;
65162;SDS011;51751;55.714;37.436;2023-03-01T05:00:22;2.45;;;1.58;;
65162;SDS011;51751;55.714;37.436;2023-03-01T05:02:53;3.60;;;1.50;;
65162;SDS011;51751;55.714;37.436;2023-03-01T05:05:23;5.10;;;1.83;;
65162;SDS011;51751;55.714;37.436;2023-03-01T05:07:54;8.50;;;1.95;;
65162;SDS011;51751;55.714;37.436;2023-03-01T05:10:21;3.88;;;1.92;;
65162;SDS011;51751;55.714;37.436;2023-03-01T05:12:50;6.45;;;2.35;;
65162;SDS011;51751;55.714;37.436;2023-03-01T05:15:17;6.10;;;3.00;;
65162;SDS011;51751;55.714;37.436;2023-03-01T05:17:47;7.35;;;2.92;;
65162;SDS011;51751;55.714;37.436;2023-03-01T05:20:21;8.15;;;3.35;;
65162;SDS011;51751;55.714;37.436;2023-03-01T05:23:05;8.68;;;3.38;;
65162;SDS011;51751;55.714;37.436;2023-03-01T05:25:32;6.38;;;2.90;;
65162;SDS011;51751;55.714;37.436;2023-03-01T05:28:00;8.43;;;3.05;;
65162;SDS011;51751;55.714;37.436;2023-03-01T05:30:32;4.72;;;2.47;;
65162;SDS011;51751;55.714;37.436;2023-03-01T05:32:58;10.90;;;2.80;;
65162;SDS011;51751;55.714;37.436;2023-03-01T05:35:25;5.85;;;2.50;;
65162;SDS011;51751;55.714;37.436;2023-03-01T05:37:51;8.13;;;2.67;;
65162;SDS011;51751;55.714;37.436;2023-03-01T05:40:19;12.18;;;2.97;;
65162;SDS011;51751;55.714;37.436;2023-03-01T05:42:48;6.13;;;2.83;;
65162;SDS011;51751;55.714;37.436;2023-03-01T05:45:40;8.80;;;3.15;;
65162;SDS011;51751;55.714;37.436;2023-03-01T05:48:07;8.68;;;2.42;;
65162;SDS011;51751;55.714;37.436;2023-03-01T05:50:35;5.00;;;2.38;;
65162;SDS011;51751;55.714;37.436;2023-03-01T05:53:12;8.23;;;2.75;;
65162;SDS011;51751;55.714;37.436;2023-03-01T05:55:40;6.00;;;2.03;;
65162;SDS011;51751;55.714;37.436;2023-03-01T05:58:07;5.03;;;2.17;;
65162;SDS011;51751;55.714;37.436;2023-03-01T06:00:35;3.83;;;2.10;;
65162;SDS011;51751;55.714;37.436;2023-03-01T06:03:01;7.72;;;2.40;;
65162;SDS011;51751;55.714;37.436;2023-03-01T06:05:28;5.78;;;2.25;;
65162;SDS011;51751;55.714;37.436;2023-03-01T06:07:54;6.13;;;2.03;;
65162;SDS011;51751;55.714;37.436;2023-03-01T06:10:21;6.82;;;2.30;;
65162;SDS011;51751;55.714;37.436;2023-03-01T06:12:47;3.95;;;1.83;;
65162;SDS011;51751;55.714;37.436;2023-03-01T06:15:14;2.83;;;1.30;;
65162;SDS011;51751;55.714;37.436;2023-03-01T06:17:42;2.53;;;1.20;;
65162;SDS011;51751;55.714;37.436;2023-03-01T06:20:10;6.15;;;1.38;;
65162;SDS011;51751;55.714;37.436;2023-03-01T06:22:38;5.65;;;1.77;;
65162;SDS011;51751;55.714;37.436;2023-03-01T06:25:04;3.00;;;1.20;;
65162;SDS011;51751;55.714;37.436;2023-03-01T06:27:31;5.80;;;1.42;;
65162;SDS011;51751;55.714;37.436;2023-03-01T06:29:57;4.35;;;1.35;;
65162;SDS011;51751;55.714;37.436;2023-03-01T06:32:25;2.75;;;1.33;;
65162;SDS011;51751;55.714;37.436;2023-03-01T06:35:11;1.88;;;0.93;;
65162;SDS011;51751;55.714;37.436;2023-03-01T06:37:38;5.30;;;1.23;;
65162;SDS011;51751;55.714;37.436;2023-03-01T06:40:07;4.40;;;1.90;;
65162;SDS011;51751;55.714;37.436;2023-03-01T06:42:34;3.28;;;1.05;;
65162;SDS011;51751;55.714;37.436;2023-03-01T06:45:01;6.80;;;0.98;;
65162;SDS011;51751;55.714;37.436;2023-03-01T06:47:29;4.00;;;1.23;;
65162;SDS011;51751;55.714;37.436;2023-03-01T06:50:17;2.10;;;0.90;;
65162;SDS011;51751;55.714;37.436;2023-03-01T06:52:45;6.15;;;0.98;;
65162;SDS011;51751;55.714;37.436;2023-03-01T06:55:11;3.33;;;1.25;;
65162;SDS011;51751;55.714;37.436;2023-03-01T06:57:57;2.65;;;0.60;;
65162;SDS011;51751;55.714;37.436;2023-03-01T07:00:24;4.30;;;0.95;;
65162;SDS011;51751;55.714;37.436;2023-03-01T07:02:50;2.97;;;1.20;;
65162;SDS011;51751;55.714;37.436;2023-03-01T07:05:17;4.30;;;1.27;;
65162;SDS011;51751;55.714;37.436;2023-03-01T07:07:43;1.00;;;0.68;;
65162;SDS011;51751;55.714;37.436;2023-03-01T07:10:09;3.10;;;0.77;;
65162;SDS011;51751;55.714;37.436;2023-03-01T07:12:35;2.38;;;0.80;;
65162;SDS011;51751;55.714;37.436;2023-03-01T07:15:04;0.75;;;0.60;;
65162;SDS011;51751;55.714;37.436;2023-03-01T07:17:33;4.10;;;1.38;;
65162;SDS011;51751;55.714;37.436;2023-03-01T07:19:59;3.17;;;0.80;;
65162;SDS011;51751;55.714;37.436;2023-03-01T07:22:25;2.80;;;0.95;;
65162;SDS011;51751;55.714;37.436;2023-03-01T07:24:51;2.88;;;0.80;;
65162;SDS011;51751;55.714;37.436;2023-03-01T07:27:16;1.75;;;0.70;;
65162;SDS011;51751;55.714;37.436;2023-03-01T07:29:42;2.03;;;0.60;;
65162;SDS011;51751;55.714;37.436;2023-03-01T07:32:11;4.13;;;0.77;;
65162;SDS011;51751;55.714;37.436;2023-03-01T07:34:38;6.43;;;1.25;;
65162;SDS011;51751;55.714;37.436;2023-03-01T07:37:04;3.20;;;1.00;;
65162;SDS011;51751;55.714;37.436;2023-03-01T07:39:30;5.45;;;1.10;;
65162;SDS011;51751;55.714;37.436;2023-03-01T07:41:58;3.97;;;1.10;;
65162;SDS011;51751;55.714;37.436;2023-03-01T07:44:25;4.63;;;1.00;;
65162;SDS011;51751;55.714;37.436;2023-03-01T07:46:51;4.72;;;1.13;;
65162;SDS011;51751;55.714;37.436;2023-03-01T07:49:21;3.03;;;0.68;;
65162;SDS011;51751;55.714;37.436;2023-03-01T07:51:47;2.20;;;1.00;;
65162;SDS011;51751;55.714;37.436;2023-03-01T07:54:13;2.25;;;1.02;;
65162;SDS011;51751;55.714;37.436;2023-03-01T07:56:39;1.48;;;0.80;;
65162;SDS011;51751;55.714;37.436;2023-03-01T07:59:09;2.83;;;0.82;;
65162;SDS011;51751;55.714;37.436;2023-03-01T08:01:34;4.32;;;1.00;;
65162;SDS011;51751;55.714;37.436;2023-03-01T08:04:00;2.05;;;0.93;;
65162;SDS011;51751;55.714;37.436;2023-03-01T08:06:33;5.95;;;0.90;;
65162;SDS011;51751;55.714;37.436;2023-03-01T08:09:00;1.60;;;0.68;;
65162;SDS011;51751;55.714;37.436;2023-03-01T08:11:26;2.78;;;1.00;;
65162;SDS011;51751;55.714;37.436;2023-03-01T08:13:53;1.33;;;0.60;;
65162;SDS011;51751;55.714;37.436;2023-03-01T08:16:19;11.20;;;1.48;;
65162;SDS011;51751;55.714;37.436;2023-03-01T08:18:45;0.95;;;0.73;;
65162;SDS011;51751;55.714;37.436;2023-03-01T08:21:15;1.98;;;1.05;;
65162;SDS011;51751;55.714;37.436;2023-03-01T08:24:01;6.80;;;0.95;;
65162;SDS011;51751;55.714;37.436;2023-03-01T08:26:30;1.70;;;0.73;;
65162;SDS011;51751;55.714;37.436;2023-03-01T08:28:56;4.20;;;1.00;;
65162;SDS011;51751;55.714;37.436;2023-03-01T08:31:24;3.95;;;1.08;;
65162;SDS011;51751;55.714;37.436;2023-03-01T08:33:52;1.90;;;0.90;;
65162;SDS011;51751;55.714;37.436;2023-03-01T08:36:26;2.75;;;0.90;;
65162;SDS011;51751;55.714;37.436;2023-03-01T08:39:01;1.38;;;0.55;;
65162;SDS011;51751;55.714;37.436;2023-03-01T08:41:27;2.75;;;1.00;;
65162;SDS011;51751;55.714;37.436;2023-03-01T08:44:12;2.72;;;0.85;;
65162;SDS011;51751;55.714;37.436;2023-03-01T08:46:39;3.80;;;1.17;;
65162;SDS011;51751;55.714;37.436;2023-03-01T08:49:16;1.55;;;0.85;;
65162;SDS011;51751;55.714;37.436;2023-03-01T08:51:44;2.30;;;1.00;;
65162;SDS011;51751;55.714;37.436;2023-03-01T08:54:12;2.58;;;0.80;;
65162;SDS011;51751;55.714;37.436;2023-03-01T08:56:40;5.43;;;1.10;;
65162;SDS011;51751;55.714;37.436;2023-03-01T08:59:06;4.03;;;0.80;;
65162;SDS011;51751;55.714;37.436;2023-03-01T09:01:33;2.58;;;0.98;;
65162;SDS011;51751;55.714;37.436;2023-03-01T09:03:59;2.40;;;1.00;;
65162;SDS011;51751;55.714;37.436;2023-03-01T09:06:25;2.30;;;0.85;;
65162;SDS011;51751;55.714;37.436;2023-03-01T09:08:51;4.20;;;0.95;;
65162;SDS011;51751;55.714;37.436;2023-03-01T09:11:18;2.08;;;0.82;;
65162;SDS011;51751;55.714;37.436;2023-03-01T09:13:46;3.35;;;0.93;;
65162;SDS011;51751;55.714;37.436;2023-03-01T09:16:31;0.95;;;0.80;;
65162;SDS011;51751;55.714;37.436;2023-03-01T09:19:40;3.40;;;0.80;;
65162;SDS011;51751;55.714;37.436;2023-03-01T09:22:07;2.58;;;1.25;;
65162;SDS011;51751;55.714;37.436;2023-03-01T09:24:32;6.15;;;1.00;;
65162;SDS011;51751;55.714;37.436;2023-03-01T09:26:58;2.17;;;0.93;;
65162;SDS011;51751;55.714;37.436;2023-03-01T09:29:28;2.30;;;0.82;;
65162;SDS011;51751;55.714;37.436;2023-03-01T09:32:13;2.45;;;0.90;;
65162;SDS011;51751;55.714;37.436;2023-03-01T09:34:39;2.67;;;1.20;;
65162;SDS011;51751;55.714;37.436;2023-03-01T09:37:23;3.65;;;1.17;;
65162;SDS011;51751;55.714;37.436;2023-03-01T09:39:52;2.47;;;1.00;;
65162;SDS011;51751;55.714;37.436;2023-03-01T09:42:18;1.48;;;0.80;;
65162;SDS011;51751;55.714;37.436;2023-03-01T09:47:20;2.97;;;0.85;;
65162;SDS011;51751;55.714;37.436;2023-03-01T09:50:06;2.85;;;0.90;;
65162;SDS011;51751;55.714;37.436;2023-03-01T09:52:38;3.35;;;1.15;;
65162;SDS011;51751;55.714;37.436;2023-03-01T09:55:11;1.45;;;0.70;;
65162;SDS011;51751;55.714;37.436;2023-03-01T09:57:41;4.38;;;0.82;;
65162;SDS011;51751;55.714;37.436;2023-03-01T10:00:12;1.75;;;0.95;;
65162;SDS011;51751;55.714;37.436;2023-03-01T10:05:41;2.70;;;0.70;;
65162;SDS011;51751;55.714;37.436;2023-03-01T10:11:24;3.45;;;0.80;;
65162;SDS011;51751;55.714;37.436;2023-03-01T10:17:24;1.58;;;0.55;;
65162;SDS011;51751;55.714;37.436;2023-03-01T10:19:53;1.27;;;0.77;;
65162;SDS011;51751;55.714;37.436;2023-03-01T10:22:21;0.60;;;0.40;;
65162;SDS011;51751;55.714;37.436;2023-03-01T10:24:51;1.95;;;0.85;;
65162;SDS011;51751;55.714;37.436;2023-03-01T10:32:37;1.23;;;0.50;;
65162;SDS011;51751;55.714;37.436;2023-03-01T10:35:17;3.28;;;0.90;;
65162;SDS011;51751;55.714;37.436;2023-03-01T10:40:59;2.10;;;0.60;;
65162;SDS011;51751;55.714;37.436;2023-03-01T10:43:50;3.00;;;0.65;;
65162;SDS011;51751;55.714;37.436;2023-03-01T10:49:10;1.88;;;0.85;;
65162;SDS011;51751;55.714;37.436;2023-03-01T10:51:43;2.47;;;1.00;;
65162;SDS011;51751;55.714;37.436;2023-03-01T10:56:59;3.20;;;0.90;;
65162;SDS011;51751;55.714;37.436;2023-03-01T10:59:40;0.20;;;0.20;;
65162;SDS011;51751;55.714;37.436;2023-03-01T11:04:35;3.25;;;0.65;;
65162;SDS011;51751;55.714;37.436;2023-03-01T11:07:01;5.07;;;0.98;;
65162;SDS011;51751;55.714;37.436;2023-03-01T11:09:31;1.98;;;0.90;;
65162;SDS011;51751;55.714;37.436;2023-03-01T11:12:13;3.70;;;0.70;;
65162;SDS011;51751;55.714;37.436;2023-03-01T11:14:46;2.80;;;0.70;;
65162;SDS011;51751;55.714;37.436;2023-03-01T11:17:31;0.70;;;0.50;;
65162;SDS011;51751;55.714;37.436;2023-03-01T11:22:55;1.67;;;0.70;;
65162;SDS011;51751;55.714;37.436;2023-03-01T11:25:26;3.22;;;0.70;;
65162;SDS011;51751;55.714;37.436;2023-03-01T11:27:59;0.98;;;0.55;;
65162;SDS011;51751;55.714;37.436;2023-03-01T11:30:34;4.60;;;0.88;;
65162;SDS011;51751;55.714;37.436;2023-03-01T11:36:06;4.22;;;0.73;;
65162;SDS011;51751;55.714;37.436;2023-03-01T11:38:36;1.17;;;0.60;;
65162;SDS011;51751;55.714;37.436;2023-03-01T11:41:13;2.83;;;0.80;;
65162;SDS011;51751;55.714;37.436;2023-03-01T11:43:47;2.63;;;1.02;;
65162;SDS011;51751;55.714;37.436;2023-03-01T12:07:51;1.52;;;0.93;;
65162;SDS011;51751;55.714;37.436;2023-03-01T12:10:25;1.42;;;0.90;;
65162;SDS011;51751;55.714;37.436;2023-03-01T12:26:32;2.38;;;0.93;;
65162;SDS011;51751;55.714;37.436;2023-03-01T12:31:36;0.95;;;0.70;;
65162;SDS011;51751;55.714;37.436;2023-03-01T12:34:29;3.38;;;0.80;;
65162;SDS011;51751;55.714;37.436;2023-03-01T12:46:08;1.67;;;0.52;;
65162;SDS011;51751;55.714;37.436;2023-03-01T12:48:43;1.02;;;0.70;;
65162;SDS011;51751;55.714;37.436;2023-03-01T12:51:15;2.53;;;0.63;;
65162;SDS011;51751;55.714;37.436;2023-03-01T12:53:48;4.00;;;0.95;;
65162;SDS011;51751;55.714;37.436;2023-03-01T12:56:16;1.05;;;0.82;;
65162;SDS011;51751;55.714;37.436;2023-03-01T13:09:39;1.67;;;0.77;;
65162;SDS011;51751;55.714;37.436;2023-03-01T13:20:52;1.17;;;0.50;;
65162;SDS011;51751;55.714;37.436;2023-03-01T13:31:00;1.42;;;0.55;;
65162;SDS011;51751;55.714;37.436;2023-03-01T13:39:00;3.72;;;1.25;;
65162;SDS011;51751;55.714;37.436;2023-03-01T13:44:25;1.00;;;0.60;;
65162;SDS011;51751;55.714;37.436;2023-03-01T13:49:52;1.67;;;0.60;;
65162;SDS011;51751;55.714;37.436;2023-03-01T13:52:35;2.22;;;0.50;;
65162;SDS011;51751;55.714;37.436;2023-03-01T13:55:14;1.88;;;0.43;;
65162;SDS011;51751;55.714;37.436;2023-03-01T13:57:48;1.55;;;0.63;;
65162;SDS011;51751;55.714;37.436;2023-03-01T14:03:28;1.83;;;0.57;;
65162;SDS011;51751;55.714;37.436;2023-03-01T14:08:36;2.92;;;0.60;;
65162;SDS011;51751;55.714;37.436;2023-03-01T14:19:36;1.60;;;0.75;;
65162;SDS011;51751;55.714;37.436;2023-03-01T14:24:29;2.10;;;0.90;;
65162;SDS011;51751;55.714;37.436;2023-03-01T14:27:08;3.63;;;1.02;;
65162;SDS011;51751;55.714;37.436;2023-03-01T14:29:37;1.40;;;0.77;;
65162;SDS011;51751;55.714;37.436;2023-03-01T14:32:20;1.02;;;0.70;;
65162;SDS011;51751;55.714;37.436;2023-03-01T14:34:47;0.85;;;0.57;;
65162;SDS011;51751;55.714;37.436;2023-03-01T14:37:19;1.45;;;0.70;;
65162;SDS011;51751;55.714;37.436;2023-03-01T14:39:48;0.98;;;0.80;;
65162;SDS011;51751;55.714;37.436;2023-03-01T14:42:14;2.33;;;0.60;;
65162;SDS011;51751;55.714;37.436;2023-03-01T14:44:42;3.08;;;0.80;;
65162;SDS011;51751;55.714;37.436;2023-03-01T14:47:11;2.80;;;0.90;;
65162;SDS011;51751;55.714;37.436;2023-03-01T14:49:42;1.90;;;0.60;;
65162;SDS011;51751;55.714;37.436;2023-03-01T14:52:20;2.35;;;0.80;;
65162;SDS011;51751;55.714;37.436;2023-03-01T14:57:15;4.07;;;1.00;;
65162;SDS011;51751;55.714;37.436;2023-03-01T14:59:47;7.85;;;1.00;;
65162;SDS011;51751;55.714;37.436;2023-03-01T15:02:18;1.33;;;0.65;;
65162;SDS011;51751;55.714;37.436;2023-03-01T15:04:54;0.80;;;0.50;;
65162;SDS011;51751;55.714;37.436;2023-03-01T15:07:26;2.38;;;0.85;;
65162;SDS011;51751;55.714;37.436;2023-03-01T15:09:55;6.20;;;0.80;;
65162;SDS011;51751;55.714;37.436;2023-03-01T15:14:53;1.80;;;0.90;;
65162;SDS011;51751;55.714;37.436;2023-03-01T15:17:20;1.05;;;0.77;;
65162;SDS011;51751;55.714;37.436;2023-03-01T15:20:18;1.27;;;0.75;;
65162;SDS011;51751;55.714;37.436;2023-03-01T15:22:47;1.17;;;0.77;;
65162;SDS011;51751;55.714;37.436;2023-03-01T15:25:16;2.33;;;0.68;;
65162;SDS011;51751;55.714;37.436;2023-03-01T15:27:48;0.75;;;0.40;;
65162;SDS011;51751;55.714;37.436;2023-03-01T15:30:36;1.15;;;0.55;;
65162;SDS011;51751;55.714;37.436;2023-03-01T15:33:37;1.10;;;0.50;;
65162;SDS011;51751;55.714;37.436;2023-03-01T15:36:29;0.82;;;0.50;;
65162;SDS011;51751;55.714;37.436;2023-03-01T15:47:50;1.85;;;0.40;;
65162;SDS011;51751;55.714;37.436;2023-03-01T15:50:20;4.18;;;0.95;;
65162;SDS011;51751;55.714;37.436;2023-03-01T15:52:50;1.63;;;0.80;;
65162;SDS011;51751;55.714;37.436;2023-03-01T15:55:24;3.22;;;0.60;;
65162;SDS011;51751;55.714;37.436;2023-03-01T15:58:05;1.75;;;0.70;;
65162;SDS011;51751;55.714;37.436;2023-03-01T16:00:35;0.80;;;0.70;;
65162;SDS011;51751;55.714;37.436;2023-03-01T16:03:01;0.88;;;0.57;;
65162;SDS011;51751;55.714;37.436;2023-03-01T16:05:28;1.20;;;0.60;;
65162;SDS011;51751;55.714;37.436;2023-03-01T16:07:56;5.78;;;1.08;;
65162;SDS011;51751;55.714;37.436;2023-03-01T16:10:22;1.95;;;0.45;;
65162;SDS011;51751;55.714;37.436;2023-03-01T16:12:48;4.28;;;0.75;;
65162;SDS011;51751;55.714;37.436;2023-03-01T16:15:18;3.05;;;0.73;;
65162;SDS011;51751;55.714;37.436;2023-03-01T16:18:04;0.82;;;0.60;;
65162;SDS011;51751;55.714;37.436;2023-03-01T16:20:32;2.05;;;0.70;;
65162;SDS011;51751;55.714;37.436;2023-03-01T16:22:58;1.83;;;0.60;;
65162;SDS011;51751;55.714;37.436;2023-03-01T16:25:25;3.78;;;0.95;;
65162;SDS011;51751;55.714;37.436;2023-03-01T16:27:54;7.07;;;0.77;;
65162;SDS011;51751;55.714;37.436;2023-03-01T16:30:21;2.35;;;0.77;;
65162;SDS011;51751;55.714;37.436;2023-03-01T16:33:06;1.75;;;0.73;;
65162;SDS011;51751;55.714;37.436;2023-03-01T16:35:33;1.75;;;0.50;;
65162;SDS011;51751;55.714;37.436;2023-03-01T16:37:59;2.22;;;0.55;;
65162;SDS011;51751;55.714;37.436;2023-03-01T16:40:26;2.95;;;0.73;;
65162;SDS011;51751;55.714;37.436;2023-03-01T16:42:53;5.38;;;1.13;;
65162;SDS011;51751;55.714;37.436;2023-03-01T16:45:25;0.82;;;0.43;;
65162;SDS011;51751;55.714;37.436;2023-03-01T16:48:01;1.97;;;0.73;;
65162;SDS011;51751;55.714;37.436;2023-03-01T16:50:27;0.40;;;0.40;;
65162;SDS011;51751;55.714;37.436;2023-03-01T16:52:59;1.95;;;0.60;;
65162;SDS011;51751;55.714;37.436;2023-03-01T16:55:44;1.92;;;0.95;;
65162;SDS011;51751;55.714;37.436;2023-03-01T16:58:13;2.40;;;0.70;;
65162;SDS011;51751;55.714;37.436;2023-03-01T17:01:06;1.60;;;0.82;;
65162;SDS011;51751;55.714;37.436;2023-03-01T17:03:33;2.85;;;0.57;;
65162;SDS011;51751;55.714;37.436;2023-03-01T17:06:05;0.45;;;0.38;;
65162;SDS011;51751;55.714;37.436;2023-03-01T17:08:36;1.65;;;0.80;;
65162;SDS011;51751;55.714;37.436;2023-03-01T17:11:06;2.63;;;0.85;;
65162;SDS011;51751;55.714;37.436;2023-03-01T17:13:35;6.63;;;0.73;;
65162;SDS011;51751;55.714;37.436;2023-03-01T17:16:02;0.80;;;0.65;;
65162;SDS011;51751;55.714;37.436;2023-03-01T17:18:33;1.58;;;0.93;;
65162;SDS011;51751;55.714;37.436;2023-03-01T17:20:59;1.42;;;0.50;;
65162;SDS011;51751;55.714;37.436;2023-03-01T17:23:28;1.13;;;0.52;;
65162;SDS011;51751;55.714;37.436;2023-03-01T17:25:55;1.52;;;0.57;;
65162;SDS011;51751;55.714;37.436;2023-03-01T17:28:25;1.60;;;0.65;;
65162;SDS011;51751;55.714;37.436;2023-03-01T17:30:55;2.78;;;0.90;;
65162;SDS011;51751;55.714;37.436;2023-03-01T17:33:23;1.48;;;0.70;;
65162;SDS011;51751;55.714;37.436;2023-03-01T17:35:49;2.22;;;0.47;;
65162;SDS011;51751;55.714;37.436;2023-03-01T17:38:15;0.52;;;0.47;;
65162;SDS011;51751;55.714;37.436;2023-03-01T17:40:43;3.90;;;0.70;;
65162;SDS011;51751;55.714;37.436;2023-03-01T17:43:12;1.85;;;0.80;;